createdAt,value
2022-08-09T00:00:11.395Z,22.20
2022-08-09T00:02:47.300Z,22.20
2022-08-09T00:06:15.638Z,22.20
2022-08-09T00:08:04.071Z,22.20
2022-08-09T00:10:38.413Z,22.20
2022-08-09T00:13:06.743Z,22.10
2022-08-09T00:15:58.659Z,22.20
2022-08-09T00:18:30.435Z,22.20
2022-08-09T00:20:58.226Z,22.10
2022-08-09T00:23:56.724Z,22.10
2022-08-09T00:26:12.255Z,22.20
2022-08-09T00:28:41.140Z,22.10
2022-08-09T00:31:09.380Z,22.10
2022-08-09T00:33:55.238Z,22.10
2022-08-09T00:36:29.538Z,22.20
2022-08-09T00:38:57.833Z,22.10
2022-08-09T00:44:14.880Z,22.20
2022-08-09T00:44:25.204Z,22.10
2022-08-09T00:46:57.760Z,22.10
2022-08-09T00:49:33.597Z,22.10
2022-08-09T00:52:02.083Z,22.10
2022-08-09T00:54:35.876Z,22.10
2022-08-09T00:57:08.792Z,22.10
2022-08-09T00:59:41.293Z,22.10
2022-08-09T01:02:19.281Z,22.10
2022-08-09T01:05:14.009Z,22.10
2022-08-09T01:08:00.112Z,22.00
2022-08-09T01:10:29.014Z,22.10
2022-08-09T01:12:59.332Z,22.10
2022-08-09T01:15:29.209Z,22.00
2022-08-09T01:17:57.976Z,22.00
2022-08-09T01:20:27.466Z,22.00
2022-08-09T01:24:00.561Z,22.00
2022-08-09T01:26:11.457Z,22.00
2022-08-09T01:28:44.155Z,22.00
2022-08-09T01:31:23.419Z,22.00
2022-08-09T01:34:04.228Z,22.00
2022-08-09T01:36:36.503Z,21.90
2022-08-09T01:39:06.471Z,21.90
2022-08-09T01:41:36.246Z,21.90
2022-08-09T01:44:03.932Z,21.90
2022-08-09T01:46:32.574Z,21.90
2022-08-09T01:49:10.125Z,21.90
2022-08-09T01:51:39.193Z,21.90
2022-08-09T01:54:10.235Z,21.90
2022-08-09T01:56:39.364Z,21.90
2022-08-09T01:59:08.235Z,21.90
2022-08-09T02:01:58.588Z,22.00
2022-08-09T02:04:23.239Z,22.00
2022-08-09T02:07:17.895Z,22.00
2022-08-09T02:10:01.455Z,22.00
2022-08-09T02:12:32.848Z,22.00
2022-08-09T02:15:00.455Z,21.90
2022-08-09T02:18:01.381Z,22.00
2022-08-09T02:20:15.781Z,21.90
2022-08-09T02:23:12.621Z,22.00
2022-08-09T02:25:42.701Z,22.00
2022-08-09T02:28:18.975Z,22.00
2022-08-09T02:30:47.981Z,22.00
2022-08-09T02:33:20.161Z,22.00
2022-08-09T02:36:02.785Z,21.90
2022-08-09T02:38:36.200Z,21.90
2022-08-09T02:41:06.485Z,21.90
2022-08-09T02:43:54.270Z,21.80
2022-08-09T02:46:22.734Z,21.90
2022-08-09T02:48:51.356Z,21.80
2022-08-09T02:51:20.103Z,21.90
2022-08-09T02:53:59.656Z,21.90
2022-08-09T02:56:28.022Z,21.90
2022-08-09T02:58:55.252Z,21.90
2022-08-09T03:01:29.427Z,21.80
2022-08-09T03:04:18.271Z,21.90
2022-08-09T03:06:48.887Z,21.80
2022-08-09T03:09:17.336Z,21.80
2022-08-09T03:12:06.716Z,21.90
2022-08-09T03:14:32.144Z,21.80
2022-08-09T03:17:02.198Z,21.80
2022-08-09T03:19:58.026Z,21.80
2022-08-09T03:22:25.713Z,21.80
2022-08-09T03:25:06.512Z,21.80
2022-08-09T03:27:46.383Z,21.70
2022-08-09T03:30:14.112Z,21.70
2022-08-09T03:32:51.514Z,21.70
2022-08-09T03:35:44.451Z,21.70
2022-08-09T03:38:05.444Z,21.70
2022-08-09T03:40:32.252Z,21.60
2022-08-09T03:42:59.579Z,21.70
2022-08-09T03:46:05.177Z,21.60
2022-08-09T03:48:19.011Z,21.70
2022-08-09T03:50:56.902Z,21.60
2022-08-09T03:53:23.915Z,21.60
2022-08-09T03:55:59.099Z,21.60
2022-08-09T03:58:25.852Z,21.60
2022-08-09T04:00:54.385Z,21.60
2022-08-09T04:03:35.759Z,21.60
2022-08-09T04:06:07.990Z,21.60
2022-08-09T04:08:38.471Z,21.60
2022-08-09T04:11:05.942Z,21.60
2022-08-09T04:13:44.939Z,21.60
2022-08-09T04:16:21.424Z,21.60
2022-08-09T04:18:50.962Z,21.60
2022-08-09T04:21:19.158Z,21.60
2022-08-09T04:23:52.441Z,21.60
2022-08-09T04:26:23.279Z,21.60
2022-08-09T04:28:50.262Z,21.60
2022-08-09T04:31:16.944Z,21.60
2022-08-09T04:33:47.655Z,21.60
2022-08-09T04:36:21.117Z,21.60
2022-08-09T04:38:50.155Z,21.50
2022-08-09T04:41:16.801Z,21.50
2022-08-09T04:43:46.553Z,21.50
2022-08-09T04:46:57.605Z,21.50
2022-08-09T04:49:07.962Z,21.50
2022-08-09T04:51:35.193Z,21.50
2022-08-09T04:54:03.751Z,21.50
2022-08-09T04:56:30.547Z,21.50
2022-08-09T04:58:57.392Z,21.50
2022-08-09T05:01:24.098Z,21.40
2022-08-09T05:03:56.866Z,21.50
2022-08-09T05:06:27.524Z,21.40
2022-08-09T05:09:00.441Z,21.50
2022-08-09T05:11:35.378Z,21.40
2022-08-09T05:14:06.684Z,21.50
2022-08-09T05:16:43.561Z,21.50
2022-08-09T05:19:25.613Z,21.50
2022-08-09T05:21:55.824Z,21.50
2022-08-09T05:24:24.274Z,21.40
2022-08-09T05:26:51.497Z,21.50
2022-08-09T05:29:23.861Z,21.50
2022-08-09T05:31:56.961Z,21.50
2022-08-09T05:34:30.165Z,21.50
2022-08-09T05:37:01.694Z,21.40
2022-08-09T05:39:36.400Z,21.50
2022-08-09T05:42:10.121Z,21.40
2022-08-09T05:44:44.791Z,21.40
2022-08-09T05:47:14.463Z,21.40
2022-08-09T05:50:30.507Z,21.40
2022-08-09T05:52:28.063Z,21.50
2022-08-09T05:55:03.067Z,21.50
2022-08-09T05:57:55.153Z,21.50
2022-08-09T06:00:23.546Z,21.60
2022-08-09T06:02:54.115Z,21.60
2022-08-09T06:05:31.136Z,21.60
2022-08-09T06:08:11.798Z,21.60
2022-08-09T06:10:38.987Z,21.70
2022-08-09T06:13:18.795Z,21.60
2022-08-09T06:15:51.745Z,21.70
2022-08-09T06:18:23.797Z,21.70
2022-08-09T06:20:56.725Z,21.60
2022-08-09T06:23:57.248Z,21.60
2022-08-09T06:26:13.543Z,21.60
2022-08-09T06:28:43.306Z,21.60
2022-08-09T06:31:10.632Z,21.60
2022-08-09T06:33:40.455Z,21.60
2022-08-09T06:36:09.290Z,21.60
2022-08-09T06:38:37.346Z,21.60
2022-08-09T06:41:18.344Z,21.60
2022-08-09T06:43:47.315Z,21.70
2022-08-09T06:46:39.565Z,21.70
2022-08-09T06:49:01.818Z,21.70
2022-08-09T06:51:28.803Z,21.80
2022-08-09T06:53:56.005Z,21.80
2022-08-09T06:56:30.821Z,21.90
2022-08-09T07:00:52.508Z,21.90
2022-08-09T07:01:57.790Z,22.00
2022-08-09T07:04:25.204Z,22.00
2022-08-09T07:07:00.677Z,22.00
2022-08-09T07:09:55.276Z,22.10
2022-08-09T07:12:17.952Z,22.10
2022-08-09T07:14:51.130Z,22.10
2022-08-09T07:17:19.791Z,22.20
2022-08-09T07:19:48.234Z,22.20
2022-08-09T07:22:18.913Z,22.20
2022-08-09T07:25:00.986Z,22.20
2022-08-09T07:27:34.405Z,22.20
2022-08-09T07:30:13.259Z,22.30
2022-08-09T07:32:43.236Z,22.40
2022-08-09T07:35:12.946Z,22.40
2022-08-09T07:37:44.541Z,22.40
2022-08-09T07:40:13.516Z,22.40
2022-08-09T07:42:48.620Z,22.50
2022-08-09T07:45:22.687Z,22.50
2022-08-09T07:48:00.815Z,22.50
2022-08-09T07:50:34.862Z,22.50
2022-08-09T07:53:05.110Z,22.60
2022-08-09T07:56:02.766Z,22.70
2022-08-09T07:58:21.666Z,22.70
2022-08-09T08:00:58.682Z,22.70
2022-08-09T08:03:32.785Z,22.80
2022-08-09T08:05:59.476Z,22.80
2022-08-09T08:08:59.857Z,22.80
2022-08-09T08:12:11.111Z,22.90
2022-08-09T08:14:00.350Z,22.90
2022-08-09T08:16:31.396Z,22.90
2022-08-09T08:18:59.639Z,23.00
2022-08-09T08:21:30.408Z,23.10
2022-08-09T08:23:57.290Z,23.10
2022-08-09T08:26:47.433Z,23.10
2022-08-09T08:29:15.258Z,23.20
2022-08-09T08:32:02.678Z,23.20
2022-08-09T08:34:31.015Z,23.30
2022-08-09T08:37:01.235Z,23.30
2022-08-09T08:39:28.497Z,23.40
2022-08-09T08:41:55.399Z,23.40
2022-08-09T08:44:29.168Z,23.40
2022-08-09T08:47:04.824Z,23.50
2022-08-09T08:49:48.467Z,23.50
2022-08-09T08:52:48.584Z,23.50
2022-08-09T08:55:05.574Z,23.50
2022-08-09T08:57:34.705Z,23.60
2022-08-09T09:00:02.471Z,23.60
2022-08-09T09:02:35.721Z,23.60
2022-08-09T09:05:09.930Z,23.70
2022-08-09T09:07:42.444Z,23.70
2022-08-09T09:10:10.239Z,23.70
2022-08-09T09:12:37.428Z,23.70
2022-08-09T09:15:06.487Z,23.70
2022-08-09T09:17:49.169Z,23.80
2022-08-09T09:20:21.256Z,23.70
2022-08-09T09:23:01.867Z,23.80
2022-08-09T09:26:01.381Z,23.80
2022-08-09T09:28:21.312Z,23.80
2022-08-09T09:31:17.598Z,23.90
2022-08-09T09:34:14.576Z,23.90
2022-08-09T09:36:51.061Z,23.90
2022-08-09T09:39:42.811Z,23.90
2022-08-09T09:42:21.682Z,23.90
2022-08-09T09:44:54.874Z,24.00
2022-08-09T09:47:23.091Z,24.00
2022-08-09T09:50:13.599Z,24.10
2022-08-09T09:52:53.422Z,24.10
2022-08-09T09:55:29.331Z,24.10
2022-08-09T09:58:18.840Z,24.10
2022-08-09T10:00:52.529Z,24.20
2022-08-09T10:03:59.628Z,24.20
2022-08-09T10:06:28.578Z,24.20
2022-08-09T10:09:11.712Z,24.30
2022-08-09T10:12:11.458Z,24.30
2022-08-09T10:14:40.023Z,24.30
2022-08-09T10:17:40.559Z,24.40
2022-08-09T10:20:02.696Z,24.40
2022-08-09T10:22:34.213Z,24.50
2022-08-09T10:25:03.411Z,24.50
2022-08-09T10:27:38.958Z,24.50
2022-08-09T10:33:09.486Z,24.60
2022-08-09T10:35:57.011Z,24.70
2022-08-09T10:38:54.556Z,24.70
2022-08-09T10:41:16.603Z,24.80
2022-08-09T10:43:58.522Z,24.80
2022-08-09T10:46:55.723Z,24.90
2022-08-09T10:52:27.330Z,24.90
2022-08-09T10:54:55.417Z,24.90
2022-08-09T10:57:23.522Z,24.80
2022-08-09T10:59:57.633Z,24.80
2022-08-09T11:03:13.759Z,24.90
2022-08-09T11:05:29.760Z,24.90
2022-08-09T11:08:17.268Z,24.90
2022-08-09T11:10:53.437Z,24.80
2022-08-09T11:13:50.021Z,24.80
2022-08-09T11:16:35.730Z,24.80
2022-08-09T11:19:09.652Z,24.80
2022-08-09T11:21:57.467Z,24.70
2022-08-09T11:24:56.758Z,24.70
2022-08-09T11:28:09.178Z,24.80
2022-08-09T11:30:33.556Z,24.80
2022-08-09T11:33:01.446Z,24.90
2022-08-09T11:35:49.443Z,24.90
2022-08-09T11:38:18.159Z,25.00
2022-08-09T11:40:45.456Z,25.00
2022-08-09T11:43:16.517Z,25.00
2022-08-09T11:45:53.755Z,25.10
2022-08-09T11:48:26.770Z,25.10
2022-08-09T11:52:37.367Z,25.20
2022-08-09T11:53:57.616Z,25.20
2022-08-09T11:56:42.189Z,25.20
2022-08-09T11:59:11.677Z,25.20
2022-08-09T12:02:18.409Z,25.30
2022-08-09T12:04:32.200Z,25.30
2022-08-09T12:07:04.556Z,25.30
2022-08-09T12:09:36.182Z,25.40
2022-08-09T12:12:13.099Z,25.40
2022-08-09T12:15:08.479Z,25.40
2022-08-09T12:17:44.445Z,25.30
2022-08-09T12:20:21.793Z,25.20
2022-08-09T12:23:00.519Z,25.20
2022-08-09T12:25:36.817Z,25.20
2022-08-09T12:29:14.548Z,25.10
2022-08-09T12:30:58.982Z,25.00
2022-08-09T12:33:35.311Z,25.00
2022-08-09T12:36:15.424Z,25.10
2022-08-09T12:38:58.625Z,25.00
2022-08-09T12:41:32.667Z,25.00
2022-08-09T12:44:09.728Z,25.00
2022-08-09T12:46:39.567Z,25.00
2022-08-09T12:49:08.784Z,25.10
2022-08-09T12:52:01.159Z,25.20
2022-08-09T12:54:22.360Z,25.20
2022-08-09T12:56:54.000Z,25.40
2022-08-09T12:59:40.000Z,25.50
2022-08-09T13:02:12.529Z,25.50
2022-08-09T13:04:41.929Z,25.60
2022-08-09T13:07:19.315Z,25.70
2022-08-09T13:09:55.608Z,25.70
2022-08-09T13:12:26.991Z,25.70
2022-08-09T13:15:03.583Z,25.70
2022-08-09T13:18:03.108Z,25.70
2022-08-09T13:20:23.382Z,25.70
2022-08-09T13:23:01.700Z,25.60
2022-08-09T13:25:43.023Z,25.60
2022-08-09T13:28:34.670Z,25.50
2022-08-09T13:32:14.405Z,25.50
2022-08-09T13:33:54.803Z,25.50
2022-08-09T13:36:41.538Z,25.50
2022-08-09T13:41:52.559Z,25.50
2022-08-09T13:42:22.326Z,25.60
2022-08-09T13:44:50.151Z,25.70
2022-08-09T13:47:33.537Z,25.80
2022-08-09T13:50:18.097Z,25.80
2022-08-09T13:52:57.521Z,25.90
2022-08-09T13:55:24.515Z,26.00
2022-08-09T13:57:59.356Z,26.10
2022-08-09T14:00:28.954Z,26.10
2022-08-09T14:03:03.485Z,26.20
2022-08-09T14:05:59.817Z,26.30
2022-08-09T14:08:29.938Z,26.40
2022-08-09T14:10:57.230Z,26.60
2022-08-09T14:14:16.390Z,26.70
2022-08-09T14:16:15.801Z,26.80
2022-08-09T14:18:45.765Z,26.80
2022-08-09T14:21:20.658Z,26.70
2022-08-09T14:23:55.047Z,26.60
2022-08-09T14:26:30.144Z,26.50
2022-08-09T14:29:08.174Z,26.30
2022-08-09T14:31:53.638Z,26.20
2022-08-09T14:34:27.570Z,26.10
2022-08-09T14:37:00.475Z,26.00
2022-08-09T14:39:45.506Z,25.90
2022-08-09T14:42:30.301Z,25.80
2022-08-09T14:45:00.379Z,25.80
2022-08-09T14:47:42.892Z,25.80
2022-08-09T14:50:15.949Z,25.80
2022-08-09T14:52:43.158Z,25.80
2022-08-09T14:55:10.000Z,25.80
2022-08-09T14:57:43.513Z,25.80
2022-08-09T15:00:10.998Z,25.90
2022-08-09T15:02:38.623Z,26.00
2022-08-09T15:05:07.223Z,26.00
2022-08-09T15:07:35.177Z,26.00
2022-08-09T15:10:10.832Z,26.00
2022-08-09T15:12:45.027Z,26.10
2022-08-09T15:15:12.953Z,26.10
2022-08-09T15:17:41.804Z,26.10
2022-08-09T15:20:12.033Z,26.10
2022-08-09T15:22:47.043Z,26.10
2022-08-09T15:25:14.383Z,26.10
2022-08-09T15:27:54.834Z,26.10
2022-08-09T15:30:55.747Z,26.10
2022-08-09T15:33:15.177Z,26.10
2022-08-09T15:36:01.470Z,26.00
2022-08-09T15:38:29.011Z,26.00
2022-08-09T15:40:55.672Z,25.90
2022-08-09T15:43:24.807Z,25.90
2022-08-09T15:46:28.482Z,25.80
2022-08-09T15:49:20.721Z,25.90
2022-08-09T15:52:02.109Z,25.80
2022-08-09T15:54:31.600Z,25.80
2022-08-09T15:57:07.326Z,25.80
2022-08-09T15:59:37.300Z,25.80
2022-08-09T16:02:04.299Z,25.80
2022-08-09T16:04:36.902Z,25.80
2022-08-09T16:07:03.759Z,25.80
2022-08-09T16:09:32.336Z,25.80
2022-08-09T16:12:31.303Z,25.80
2022-08-09T16:16:11.853Z,25.80
2022-08-09T16:18:13.073Z,25.80
2022-08-09T16:20:41.707Z,25.80
2022-08-09T16:23:19.974Z,25.80
2022-08-09T16:25:49.659Z,25.80
2022-08-09T16:28:16.696Z,25.80
2022-08-09T16:30:44.826Z,25.80
2022-08-09T16:33:23.790Z,25.80
2022-08-09T16:35:57.981Z,25.80
2022-08-09T16:38:26.684Z,25.80
2022-08-09T16:40:53.420Z,25.70
2022-08-09T16:43:22.296Z,25.70
2022-08-09T16:45:53.653Z,25.70
2022-08-09T16:48:41.363Z,25.70
2022-08-09T16:51:14.100Z,25.70
2022-08-09T16:54:24.866Z,25.70
2022-08-09T16:56:32.812Z,25.60
2022-08-09T16:59:06.755Z,25.60
2022-08-09T17:01:38.651Z,25.60
2022-08-09T17:04:06.675Z,25.60
2022-08-09T17:06:35.334Z,25.60
2022-08-09T17:09:45.609Z,25.60
2022-08-09T17:12:07.787Z,25.60
2022-08-09T17:15:58.913Z,25.70
2022-08-09T17:18:10.565Z,26.00
2022-08-09T17:20:42.410Z,26.20
2022-08-09T17:23:16.493Z,26.20
2022-08-09T17:25:52.962Z,26.10
2022-08-09T17:28:20.285Z,26.00
2022-08-09T17:30:47.845Z,25.90
2022-08-09T17:33:22.986Z,25.80
2022-08-09T17:35:50.223Z,25.70
2022-08-09T17:38:30.650Z,25.60
2022-08-09T17:41:00.726Z,25.60
2022-08-09T17:43:34.223Z,25.50
2022-08-09T17:46:08.999Z,25.40
2022-08-09T17:48:51.644Z,25.40
2022-08-09T17:51:20.490Z,25.40
2022-08-09T17:53:52.648Z,25.30
2022-08-09T17:56:26.740Z,25.30
2022-08-09T17:58:59.906Z,25.20
2022-08-09T18:02:03.613Z,25.20
2022-08-09T18:04:14.491Z,25.20
2022-08-09T18:06:43.107Z,25.20
2022-08-09T18:09:21.475Z,25.20
2022-08-09T18:12:05.163Z,25.10
2022-08-09T18:14:36.823Z,25.10
2022-08-09T18:17:18.954Z,25.10
2022-08-09T18:20:58.881Z,25.00
2022-08-09T18:22:50.898Z,25.00
2022-08-09T18:25:18.315Z,25.00
2022-08-09T18:28:02.830Z,25.00
2022-08-09T18:30:41.447Z,25.00
2022-08-09T18:33:15.361Z,25.00
2022-08-09T18:36:00.055Z,24.90
2022-08-09T18:38:27.536Z,24.90
2022-08-09T18:40:55.466Z,24.90
2022-08-09T18:43:23.382Z,24.80
2022-08-09T18:46:50.228Z,24.90
2022-08-09T18:48:37.114Z,24.80
2022-08-09T18:51:04.089Z,24.80
2022-08-09T18:53:56.360Z,24.80
2022-08-09T18:56:27.194Z,24.70
2022-08-09T18:58:56.417Z,24.70
2022-08-09T19:01:24.381Z,24.70
2022-08-09T19:04:01.536Z,24.60
2022-08-09T19:06:34.144Z,24.60
2022-08-09T19:09:02.700Z,24.50
2022-08-09T19:11:37.871Z,24.50
2022-08-09T19:14:08.416Z,24.50
2022-08-09T19:16:36.911Z,24.50
2022-08-09T19:19:25.195Z,24.50
2022-08-09T19:22:04.781Z,24.40
2022-08-09T19:24:38.332Z,24.40
2022-08-09T19:27:20.175Z,24.40
2022-08-09T19:30:24.905Z,24.40
2022-08-09T19:32:37.170Z,24.30
2022-08-09T19:35:04.871Z,24.30
2022-08-09T19:37:41.129Z,24.30
2022-08-09T19:40:19.712Z,24.30
2022-08-09T19:42:47.411Z,24.30
2022-08-09T19:45:16.927Z,24.30
2022-08-09T19:47:44.748Z,24.30
2022-08-09T19:50:49.206Z,24.20
2022-08-09T19:52:59.813Z,24.20
2022-08-09T19:56:02.854Z,24.20
2022-08-09T19:58:30.219Z,24.20
2022-08-09T20:00:57.813Z,24.20
2022-08-09T20:04:18.713Z,24.10
2022-08-09T20:06:23.874Z,24.10
2022-08-09T20:08:57.609Z,24.10
2022-08-09T20:11:42.870Z,24.10
2022-08-09T20:14:15.420Z,24.10
2022-08-09T20:16:49.993Z,24.00
2022-08-09T20:19:47.669Z,24.00
2022-08-09T20:22:09.006Z,24.00
2022-08-09T20:24:36.916Z,23.90
2022-08-09T20:27:08.761Z,23.90
2022-08-09T20:29:38.721Z,23.90
2022-08-09T20:32:28.840Z,23.90
2022-08-09T20:34:58.487Z,23.80
2022-08-09T20:37:25.471Z,23.80
2022-08-09T20:40:17.632Z,23.80
2022-08-09T20:42:46.510Z,23.80
2022-08-09T20:46:00.753Z,23.70
2022-08-09T20:48:13.769Z,23.70
2022-08-09T20:50:51.117Z,23.60
2022-08-09T20:53:36.867Z,23.60
2022-08-09T20:56:19.946Z,23.60
2022-08-09T20:58:48.693Z,23.60
2022-08-09T21:01:35.010Z,23.60
2022-08-09T21:05:48.438Z,23.60
2022-08-09T21:06:51.057Z,23.50
2022-08-09T21:09:32.835Z,23.50
2022-08-09T21:14:36.969Z,23.50
2022-08-09T21:18:22.166Z,23.50
2022-08-09T21:20:18.680Z,23.40
2022-08-09T21:22:41.624Z,23.40
2022-08-09T21:25:28.319Z,23.40
2022-08-09T21:28:07.472Z,23.30
2022-08-09T21:30:40.536Z,23.30
2022-08-09T21:33:08.651Z,23.30
2022-08-09T21:35:40.821Z,23.30
2022-08-09T21:38:30.873Z,23.20
2022-08-09T21:40:59.469Z,23.20
2022-08-09T21:43:56.245Z,23.20
2022-08-09T21:46:13.705Z,23.20
2022-08-09T21:48:42.716Z,23.10
2022-08-09T21:51:23.866Z,23.10
2022-08-09T21:53:54.669Z,23.10
2022-08-09T21:56:42.905Z,23.10
2022-08-09T21:59:09.699Z,23.10
2022-08-09T22:01:58.776Z,23.10
2022-08-09T22:04:55.628Z,23.00
2022-08-09T22:07:12.233Z,23.00
2022-08-09T22:09:43.407Z,23.00
2022-08-09T22:12:18.555Z,23.00
2022-08-09T22:14:46.509Z,22.90
2022-08-09T22:17:13.662Z,22.90
2022-08-09T22:19:58.851Z,22.90
2022-08-09T22:22:27.895Z,22.80
2022-08-09T22:26:05.909Z,22.80
2022-08-09T22:27:42.161Z,22.80
2022-08-09T22:30:09.923Z,22.70
2022-08-09T22:32:37.384Z,22.70
2022-08-09T22:35:06.765Z,22.70
2022-08-09T22:38:07.328Z,22.70
2022-08-09T22:40:35.378Z,22.60
2022-08-09T22:43:15.984Z,22.60
2022-08-09T22:48:12.671Z,22.60
2022-08-09T22:48:35.290Z,22.50
2022-08-09T22:51:10.410Z,22.50
2022-08-09T22:53:58.317Z,22.50
2022-08-09T22:56:31.228Z,22.50
2022-08-09T22:59:05.766Z,22.50
2022-08-09T23:01:49.654Z,22.50
2022-08-09T23:04:16.547Z,22.40
2022-08-09T23:07:02.603Z,22.40
2022-08-09T23:09:29.812Z,22.40
2022-08-09T23:11:56.649Z,22.30
2022-08-09T23:14:37.691Z,22.30
2022-08-09T23:17:09.162Z,22.30
2022-08-09T23:20:06.495Z,22.30
2022-08-09T23:22:22.876Z,22.20
2022-08-09T23:24:49.825Z,22.20
2022-08-09T23:27:16.619Z,22.20
2022-08-09T23:29:43.511Z,22.20
2022-08-09T23:32:10.306Z,22.10
2022-08-09T23:34:37.666Z,22.10
2022-08-09T23:37:05.004Z,22.10
2022-08-09T23:39:32.308Z,22.10
2022-08-09T23:41:59.421Z,22.10
2022-08-09T23:44:26.609Z,22.00
2022-08-09T23:46:57.795Z,22.00
2022-08-09T23:49:25.862Z,22.00
2022-08-09T23:51:54.014Z,22.00
2022-08-09T23:54:21.161Z,22.00
2022-08-09T23:56:56.071Z,22.00
2022-08-09T23:59:25.027Z,21.90
